Terminal Aerodrome Forecast
Issued by NWS St Louis, MO

Home | Current Version | Previous Version | Graphics & Text | Print | Product List | Glossary On
Versions: 1 2 3 4 5 6 7 8 9 10 11 12 13 14 15 16 17 18 19 20 21 22 23 24 25 26 27 28 29 30
000
FTUS43 KLSX 161455 AAB
TAFSTL
TAF AMD
KSTL 161455Z 1615/1718 29013KT P6SM BKN035
      TEMPO 1615/1617 BKN030
     FM161700 29011KT P6SM BKN025
     FM162100 30011KT P6SM BKN035
     FM170200 30007KT P6SM BKN050
     FM170600 30007KT P6SM SCT120=

USA.gov is the U.S. government's official web portal to all federal, state and local government web resources and services.